Time;durP1;ratioP1;P1;durP2;ratioP2;P2;SDS_P1;SDS_P2;PMS_P1;PMS_P2;Temp;Humidity;BMP_temperature;BMP_pressure;BME280_temperature;BME280_humidity;BME280_pressure;Samples;Min_cycle;Max_cycle;Signal;HPM_P1;HPM_P2
2023/06/24 03:00:41;;;;;;;27.50;25.57;;;13.90;99.90;;;;;;5637117;24;20243;-69
2023/06/24 03:03:07;;;;;;;33.00;31.13;;;13.90;99.90;;;;;;4876983;29;20227;-68
2023/06/24 03:05:32;;;;;;;36.57;34.53;;;14.00;99.90;;;;;;4877820;29;20292;-69
2023/06/24 03:07:59;;;;;;;36.93;34.70;;;13.90;99.90;;;;;;4876329;29;20673;-68
2023/06/24 03:10:25;;;;;;;25.73;24.23;;;13.80;99.90;;;;;;4877854;29;20257;-68
2023/06/24 03:12:51;;;;;;;22.73;21.27;;;13.80;99.90;;;;;;4870370;29;20188;-68
2023/06/24 03:15:17;;;;;;;22.77;21.37;;;13.70;99.90;;;;;;4863915;29;20636;-68
2023/06/24 03:17:44;;;;;;;17.53;16.23;;;13.70;99.90;;;;;;4871657;29;20698;-68
2023/06/24 03:20:10;;;;;;;21.03;19.63;;;13.70;99.90;;;;;;4886173;29;20219;-67
2023/06/24 03:22:36;;;;;;;19.67;18.37;;;13.80;99.90;;;;;;4865039;29;20191;-68
2023/06/24 03:25:02;;;;;;;21.13;19.77;;;13.70;99.90;;;;;;4866231;29;20271;-68
2023/06/24 03:27:28;;;;;;;19.30;18.13;;;13.70;99.90;;;;;;4875926;29;20279;-67
2023/06/24 03:29:54;;;;;;;17.23;16.03;;;13.70;99.90;;;;;;4869719;29;20188;-68
2023/06/24 03:32:20;;;;;;;19.93;18.63;;;13.80;99.90;;;;;;4876461;29;20223;-68
2023/06/24 03:34:46;;;;;;;15.27;14.17;;;13.80;99.90;;;;;;4876645;29;20293;-69
2023/06/24 03:37:11;;;;;;;27.27;25.10;;;13.80;99.90;;;;;;4876078;29;20200;-68
2023/06/24 03:39:37;;;;;;;26.03;24.53;;;13.80;99.90;;;;;;4871515;29;20256;-68
2023/06/24 03:42:03;;;;;;;19.83;18.33;;;13.70;99.90;;;;;;4869730;29;20213;-69
2023/06/24 03:44:29;;;;;;;9.77;9.00;;;13.70;99.90;;;;;;4876408;29;20196;-68
2023/06/24 03:46:55;;;;;;;13.63;12.73;;;13.80;99.90;;;;;;4890728;29;20543;-68
2023/06/24 03:49:20;;;;;;;13.33;12.33;;;13.80;99.90;;;;;;4871511;29;20282;-68
2023/06/24 03:51:46;;;;;;;11.37;10.47;;;13.80;99.90;;;;;;4876053;29;20216;-68
2023/06/24 03:54:12;;;;;;;17.90;16.87;;;13.90;99.90;;;;;;4875082;29;20744;-69
2023/06/24 03:56:38;;;;;;;18.73;17.40;;;13.90;99.90;;;;;;4877084;29;20192;-68
2023/06/24 03:59:03;;;;;;;29.37;27.50;;;13.80;99.90;;;;;;4871103;29;20193;-68
2023/06/24 04:01:31;;;;;;;31.40;29.47;;;13.80;99.90;;;;;;4869786;29;20314;-68
2023/06/24 04:03:58;;;;;;;28.47;26.83;;;13.70;99.90;;;;;;4876081;29;20226;-68
2023/06/24 04:06:24;;;;;;;12.60;11.70;;;13.70;99.90;;;;;;4876821;29;20192;-69
2023/06/24 04:08:51;;;;;;;11.10;10.30;;;13.70;99.90;;;;;;4873121;29;20181;-68
2023/06/24 04:11:18;;;;;;;11.93;11.20;;;13.80;99.90;;;;;;4877025;29;20649;-68
2023/06/24 04:13:48;;;;;;;10.83;10.03;;;13.90;99.90;;;;;;4874921;29;20192;-68
2023/06/24 04:16:14;;;;;;;11.33;10.53;;;14.10;99.90;;;;;;4875189;29;20200;-69
2023/06/24 04:18:40;;;;;;;23.47;22.07;;;14.20;99.90;;;;;;4872525;29;20566;-68
2023/06/24 04:21:06;;;;;;;31.53;29.73;;;14.30;99.90;;;;;;4865916;29;20212;-68
2023/06/24 04:23:32;;;;;;;18.23;16.67;;;14.50;99.90;;;;;;4875804;29;20214;-68
2023/06/24 04:25:59;;;;;;;17.13;15.83;;;14.60;99.90;;;;;;4875988;29;20200;-68
2023/06/24 04:28:24;;;;;;;14.97;13.97;;;14.70;99.90;;;;;;4873588;29;20192;-68
2023/06/24 04:30:51;;;;;;;13.10;12.10;;;14.80;99.90;;;;;;4872687;29;20579;-68
2023/06/24 04:33:17;;;;;;;9.70;8.90;;;14.90;99.90;;;;;;4875870;29;20227;-68
2023/06/24 04:35:44;;;;;;;8.23;7.53;;;15.00;99.90;;;;;;4865465;29;20248;-69
2023/06/24 04:38:10;;;;;;;7.33;6.63;;;15.10;99.90;;;;;;4869596;29;20220;-68
2023/06/24 04:40:36;;;;;;;8.67;8.07;;;15.20;99.90;;;;;;4870954;29;20215;-69
2023/06/24 04:43:02;;;;;;;34.87;32.87;;;15.30;99.90;;;;;;4875609;29;20192;-68
2023/06/24 04:45:28;;;;;;;91.53;86.83;;;15.40;99.90;;;;;;4875478;29;20206;-67
2023/06/24 04:47:54;;;;;;;43.70;41.17;;;15.60;99.90;;;;;;4874009;29;20220;-68
2023/06/24 04:50:20;;;;;;;11.53;10.53;;;15.70;99.90;;;;;;4871254;29;20219;-68
2023/06/24 04:52:53;;;;;;;12.83;11.77;;;15.70;99.90;;;;;;4873668;29;20192;-67
2023/06/24 04:55:21;;;;;;;20.47;19.27;;;15.80;99.90;;;;;;4878076;29;20202;-68
2023/06/24 04:57:48;;;;;;;26.03;24.33;;;15.90;99.90;;;;;;4877923;29;20196;-69
2023/06/24 05:00:14;;;;;;;15.83;14.53;;;16.00;99.90;;;;;;4874112;29;20244;-68
2023/06/24 05:02:40;;;;;;;11.47;10.67;;;16.20;99.90;;;;;;4878179;29;20196;-68
2023/06/24 05:05:06;;;;;;;30.57;28.53;;;16.30;99.90;;;;;;4878774;29;20207;-68
2023/06/24 05:07:31;;;;;;;44.10;41.70;;;16.50;99.90;;;;;;4877474;29;20188;-68
2023/06/24 05:09:57;;;;;;;20.07;18.90;;;16.70;99.90;;;;;;4876088;29;20570;-69
2023/06/24 05:12:23;;;;;;;8.97;8.17;;;17.10;99.90;;;;;;4878334;29;20595;-68
2023/06/24 05:14:53;;;;;;;14.50;13.50;;;17.30;99.90;;;;;;4878722;29;20252;-68
2023/06/24 05:17:21;;;;;;;22.67;21.37;;;17.70;99.90;;;;;;4878618;29;20206;-68
2023/06/24 05:19:47;;;;;;;19.13;17.83;;;17.90;99.90;;;;;;4875886;29;20235;-68
2023/06/24 05:22:13;;;;;;;15.63;14.63;;;18.10;99.90;;;;;;4878650;29;20243;-68
2023/06/24 05:24:41;;;;;;;11.70;10.88;;;18.30;99.90;;;;;;4878704;29;20201;-68
2023/06/24 05:27:07;;;;;;;11.80;10.77;;;18.50;99.90;;;;;;4877836;29;20291;-69
2023/06/24 05:29:33;;;;;;;32.53;30.58;;;18.50;99.90;;;;;;4875448;29;20213;-69
2023/06/24 05:32:01;;;;;;;26.08;24.55;;;18.90;99.90;;;;;;4878550;29;20238;-68
2023/06/24 05:34:27;;;;;;;10.48;9.77;;;19.20;99.90;;;;;;4878090;29;20192;-69
2023/06/24 05:36:53;;;;;;;12.63;11.63;;;19.30;99.90;;;;;;4878232;29;20192;-69
2023/06/24 05:39:20;;;;;;;45.63;43.22;;;19.70;99.90;;;;;;4876277;29;20195;-69
2023/06/24 05:41:48;;;;;;;62.70;59.53;;;20.40;99.90;;;;;;4866438;29;21646;-68
2023/06/24 05:44:14;;;;;;;27.98;26.42;;;20.90;99.90;;;;;;4871520;29;20192;-67
2023/06/24 05:46:40;;;;;;;18.65;17.58;;;21.40;99.90;;;;;;4878182;29;20204;-69
2023/06/24 05:49:06;;;;;;;13.18;12.38;;;21.30;99.90;;;;;;4875582;29;20193;-67
2023/06/24 05:51:31;;;;;;;13.18;12.20;;;21.60;99.90;;;;;;4872955;29;20216;-67
2023/06/24 05:53:57;;;;;;;18.60;17.60;;;22.50;99.90;;;;;;4875611;29;20218;-69
2023/06/24 05:56:23;;;;;;;17.02;15.98;;;22.70;99.90;;;;;;4877222;29;20188;-68
2023/06/24 05:58:49;;;;;;;12.02;11.23;;;22.70;99.90;;;;;;4879226;29;20196;-67
2023/06/24 06:01:15;;;;;;;9.82;9.20;;;22.40;99.90;;;;;;4891282;29;20228;-68
2023/06/24 06:03:41;;;;;;;15.07;14.18;;;22.50;99.90;;;;;;4870584;29;20219;-70
2023/06/24 06:06:07;;;;;;;23.92;22.60;;;22.50;99.90;;;;;;4876694;29;20196;-67
2023/06/24 06:08:33;;;;;;;19.30;18.10;;;22.80;99.90;;;;;;4878218;29;20215;-68
2023/06/24 06:11:02;;;;;;;15.50;14.05;;;23.60;99.90;;;;;;4879014;29;20271;-68
2023/06/24 06:13:28;;;;;;;7.35;6.85;;;24.10;99.90;;;;;;4873637;29;20192;-66
2023/06/24 06:15:54;;;;;;;6.68;6.07;;;24.20;99.90;;;;;;4878575;29;20212;-67
2023/06/24 06:18:19;;;;;;;7.88;7.15;;;24.10;99.90;;;;;;4877060;29;20232;-68
2023/06/24 06:20:45;;;;;;;6.50;6.00;;;24.30;99.90;;;;;;4878295;29;20258;-68
2023/06/24 06:23:11;;;;;;;6.50;6.10;;;24.20;99.90;;;;;;4872888;29;20197;-67
2023/06/24 06:25:38;;;;;;;60.30;57.10;;;24.80;99.90;;;;;;4877441;29;20422;-67
2023/06/24 06:28:04;;;;;;;34.13;31.73;;;25.50;99.90;;;;;;4877878;29;20192;-70
2023/06/24 06:30:30;;;;;;;26.17;24.48;;;25.70;99.90;;;;;;4878023;29;20220;-70
2023/06/24 06:32:56;;;;;;;19.25;18.05;;;25.60;99.90;;;;;;4873016;29;20195;-70
2023/06/24 06:35:21;;;;;;;22.02;20.80;;;25.80;99.90;;;;;;4878462;29;20188;-69
2023/06/24 06:37:52;;;;;;;17.77;16.70;;;25.80;99.40;;;;;;4877628;29;20192;-68
2023/06/24 06:40:19;;;;;;;16.40;15.40;;;25.40;99.90;;;;;;4877804;29;20200;-69
2023/06/24 06:42:45;;;;;;;24.75;23.33;;;25.60;99.80;;;;;;4873310;29;20329;-68
2023/06/24 06:45:11;;;;;;;35.53;33.60;;;26.10;99.20;;;;;;4877399;29;20647;-69
2023/06/24 06:47:36;;;;;;;34.92;32.90;;;26.30;98.40;;;;;;4877510;29;20246;-69
2023/06/24 06:50:02;;;;;;;28.60;27.17;;;26.80;97.60;;;;;;4877739;29;20253;-68
2023/06/24 06:52:28;;;;;;;31.83;30.05;;;27.30;96.60;;;;;;4875940;29;20243;-70
2023/06/24 06:54:55;;;;;;;17.08;15.80;;;27.20;95.70;;;;;;4875146;29;20200;-70
2023/06/24 06:57:21;;;;;;;8.90;8.30;;;27.40;95.40;;;;;;4864973;29;20189;-70
2023/06/24 06:59:46;;;;;;;9.52;8.95;;;27.30;94.40;;;;;;4872803;29;20248;-71
2023/06/24 07:02:12;;;;;;;17.45;16.50;;;27.70;94.10;;;;;;4876436;29;20228;-70
2023/06/24 07:04:38;;;;;;;17.95;16.90;;;27.90;93.60;;;;;;4874375;29;20192;-70
2023/06/24 07:07:04;;;;;;;32.70;30.75;;;28.00;93.00;;;;;;4877410;29;20196;-71
2023/06/24 07:09:30;;;;;;;42.55;40.28;;;28.30;92.00;;;;;;4877653;29;20249;-71
2023/06/24 07:11:55;;;;;;;54.33;51.42;;;28.40;91.30;;;;;;4877408;29;20261;-71
2023/06/24 07:14:21;;;;;;;62.55;59.45;;;27.90;91.40;;;;;;4889720;29;20192;-84
2023/06/24 07:16:47;;;;;;;54.88;52.13;;;27.90;90.80;;;;;;4879762;29;20225;-84
2023/06/24 07:19:13;;;;;;;56.15;53.17;;;27.90;90.50;;;;;;4886043;29;20291;-84
2023/06/24 07:21:39;;;;;;;55.42;52.58;;;28.10;90.30;;;;;;4897422;29;20212;-85
2023/06/24 07:24:05;;;;;;;42.65;40.42;;;28.20;89.30;;;;;;4899414;29;20188;-84
2023/06/24 07:26:31;;;;;;;36.17;34.38;;;28.80;85.80;;;;;;4892654;29;20280;-85
2023/06/24 07:29:00;;;;;;;27.75;26.38;;;28.90;85.20;;;;;;4905098;29;20188;-83
2023/06/24 07:31:26;;;;;;;34.10;32.40;;;29.10;83.60;;;;;;4885116;29;20576;-84
2023/06/24 07:33:52;;;;;;;23.40;22.15;;;28.40;85.60;;;;;;4886326;29;20192;-85
2023/06/24 07:36:18;;;;;;;16.85;15.95;;;28.60;84.90;;;;;;4890471;29;20225;-84
2023/06/24 07:38:44;;;;;;;13.50;12.68;;;28.90;82.20;;;;;;4904177;29;20207;-84
2023/06/24 07:41:10;;;;;;;21.30;20.10;;;28.60;82.50;;;;;;4892618;29;20303;-85
2023/06/24 07:43:36;;;;;;;18.13;17.15;;;28.10;83.80;;;;;;4886014;29;20199;-85
2023/06/24 07:46:02;;;;;;;11.15;10.55;;;28.40;84.30;;;;;;4898499;29;20573;-84
2023/06/24 07:48:28;;;;;;;10.45;9.85;;;28.70;81.60;;;;;;4891665;29;20196;-84
2023/06/24 07:50:53;;;;;;;12.30;11.60;;;28.40;80.70;;;;;;4882627;29;20231;-84
2023/06/24 07:53:19;;;;;;;12.00;11.18;;;27.90;81.90;;;;;;4887459;29;20189;-84
2023/06/24 07:55:45;;;;;;;9.02;8.38;;;27.80;82.00;;;;;;4891333;29;20200;-84
2023/06/24 07:58:11;;;;;;;7.10;6.60;;;28.00;81.30;;;;;;4889394;29;20188;-84
2023/06/24 08:00:36;;;;;;;6.65;6.25;;;28.30;79.30;;;;;;4888702;29;20235;-84
2023/06/24 08:03:03;;;;;;;5.22;4.82;;;28.90;79.50;;;;;;4886184;29;20193;-85
2023/06/24 08:05:29;;;;;;;5.53;5.13;;;29.20;77.30;;;;;;4887894;29;20279;-84
2023/06/24 08:07:55;;;;;;;5.70;5.40;;;29.10;77.20;;;;;;4902521;29;20649;-85
2023/06/24 08:10:21;;;;;;;5.15;4.82;;;28.90;75.90;;;;;;4889406;29;20228;-84
2023/06/24 08:12:46;;;;;;;5.38;5.10;;;28.60;76.40;;;;;;4900131;29;20256;-85
2023/06/24 08:15:12;;;;;;;6.22;5.82;;;28.50;75.40;;;;;;4896436;29;20207;-85
2023/06/24 08:17:38;;;;;;;7.45;6.95;;;28.40;76.40;;;;;;4888432;29;20257;-85
2023/06/24 08:20:04;;;;;;;8.40;7.90;;;28.70;75.30;;;;;;4890026;29;20196;-85
2023/06/24 08:22:30;;;;;;;6.60;6.20;;;28.70;74.80;;;;;;4900092;29;20821;-83
2023/06/24 08:24:56;;;;;;;8.27;7.72;;;28.50;77.30;;;;;;4899501;29;20244;-84
2023/06/24 08:27:22;;;;;;;10.70;10.10;;;29.00;76.10;;;;;;4883499;29;20196;-84
2023/06/24 08:29:48;;;;;;;10.30;9.63;;;28.90;74.70;;;;;;4893280;29;20588;-84
2023/06/24 08:32:13;;;;;;;10.43;9.85;;;29.00;74.10;;;;;;4879121;29;20214;-84
2023/06/24 08:34:39;;;;;;;8.50;7.90;;;28.80;74.90;;;;;;4879900;29;20185;-84
2023/06/24 08:37:05;;;;;;;11.00;10.20;;;29.40;75.30;;;;;;4881672;29;20211;-84
2023/06/24 08:39:31;;;;;;;12.43;11.77;;;29.70;73.60;;;;;;4895990;29;20180;-85
2023/06/24 08:41:56;;;;;;;11.32;10.65;;;29.60;73.20;;;;;;4885983;29;20299;-84
2023/06/24 08:44:22;;;;;;;12.98;12.05;;;29.80;72.60;;;;;;4879753;29;20653;-83
2023/06/24 08:46:48;;;;;;;13.45;12.73;;;30.20;72.80;;;;;;4882709;29;20203;-85
2023/06/24 08:49:29;;;;;;;13.60;12.80;;;30.60;71.50;;;;;;4873112;29;20192;-84
2023/06/24 08:52:13;;;;;;;11.90;11.15;;;30.90;70.20;;;;;;4880615;29;20218;-84
2023/06/24 08:54:40;;;;;;;18.48;17.48;;;31.30;68.70;;;;;;4881141;29;20188;-84
2023/06/24 08:57:07;;;;;;;13.13;12.43;;;32.00;65.90;;;;;;4881914;29;20269;-84
2023/06/24 08:59:36;;;;;;;9.90;9.30;;;32.10;63.60;;;;;;4889252;29;20192;-84
2023/06/24 09:02:02;;;;;;;7.22;6.82;;;32.10;62.60;;;;;;4909708;29;20332;-84
2023/06/24 09:04:28;;;;;;;6.97;6.57;;;32.20;61.50;;;;;;4889003;29;20218;-84
2023/06/24 09:06:54;;;;;;;8.30;7.70;;;32.20;61.40;;;;;;4890490;29;20200;-84
2023/06/24 09:09:21;;;;;;;9.63;8.90;;;31.90;62.10;;;;;;4889580;29;20716;-84
2023/06/24 09:11:56;;;;;;;8.02;7.47;;;31.90;63.20;;;;;;4887060;29;20216;-84
2023/06/24 09:14:24;;;;;;;7.65;7.15;;;31.60;61.10;;;;;;4890076;24;20999;-75
2023/06/24 09:17:06;;;;;;;8.77;8.05;;;30.70;61.10;;;;;;4906719;29;20215;-74
2023/06/24 09:19:36;;;;;;;11.85;11.15;;;30.50;61.70;;;;;;4895482;29;20203;-74
2023/06/24 09:22:03;;;;;;;10.40;9.65;;;29.70;62.80;;;;;;4895540;29;20187;-77
2023/06/24 09:24:36;;;;;;;8.70;8.10;;;29.60;63.90;;;;;;4881616;29;20689;-75
2023/06/24 09:27:03;;;;;;;6.38;5.97;;;29.30;62.90;;;;;;4884535;29;20192;-74
2023/06/24 09:29:32;;;;;;;9.45;8.95;;;29.70;63.10;;;;;;4890312;29;20222;-74
2023/06/24 09:31:59;;;;;;;8.63;8.13;;;30.30;62.30;;;;;;4877933;29;20204;-75
2023/06/24 09:34:29;;;;;;;12.18;11.38;;;30.40;61.80;;;;;;4868670;29;20213;-75
2023/06/24 09:36:56;;;;;;;11.55;10.93;;;30.40;61.20;;;;;;4876640;29;20561;-75
2023/06/24 09:39:28;;;;;;;7.80;7.38;;;30.70;60.10;;;;;;4876574;29;20212;-75
2023/06/24 09:41:54;;;;;;;6.00;5.70;;;31.40;59.40;;;;;;4879979;29;20196;-75
2023/06/24 09:44:20;;;;;;;6.75;6.38;;;31.40;59.00;;;;;;4872138;29;20208;-75
2023/06/24 09:46:47;;;;;;;7.47;7.07;;;31.20;60.90;;;;;;4878757;29;20192;-75
2023/06/24 09:49:13;;;;;;;6.63;6.25;;;32.00;59.60;;;;;;4879681;29;20241;-74
2023/06/24 09:51:42;;;;;;;8.32;7.82;;;32.80;57.40;;;;;;4879974;29;20246;-74
2023/06/24 09:54:10;;;;;;;5.25;4.90;;;32.60;57.40;;;;;;4872012;29;20740;-74
2023/06/24 09:56:39;;;;;;;6.43;6.13;;;32.10;57.10;;;;;;4878715;29;20199;-74
2023/06/24 09:59:06;;;;;;;6.68;6.20;;;30.90;57.90;;;;;;4879205;29;20227;-74
2023/06/24 10:01:35;;;;;;;7.20;6.80;;;31.00;59.10;;;;;;4879709;29;20271;-75
2023/06/24 10:04:03;;;;;;;6.53;6.13;;;31.20;58.80;;;;;;4871957;29;20242;-75
2023/06/24 10:06:29;;;;;;;6.68;6.28;;;31.60;58.40;;;;;;4879614;29;20192;-75
2023/06/24 10:08:55;;;;;;;7.85;7.28;;;31.90;58.10;;;;;;4873608;29;20181;-75
2023/06/24 10:11:21;;;;;;;5.80;5.35;;;32.10;55.70;;;;;;4874994;29;20223;-75
2023/06/24 10:13:47;;;;;;;6.53;6.05;;;31.90;55.50;;;;;;4893913;29;20237;-75
2023/06/24 10:16:15;;;;;;;9.10;8.25;;;32.40;55.70;;;;;;4879300;29;20215;-75
2023/06/24 10:18:43;;;;;;;7.47;6.97;;;32.50;54.70;;;;;;4877954;29;20200;-75
2023/06/24 10:21:09;;;;;;;11.18;10.55;;;32.70;54.10;;;;;;4873920;29;20223;-75
2023/06/24 10:23:55;;;;;;;19.85;18.80;;;33.00;53.70;;;;;;4878687;29;20192;-75
2023/06/24 10:26:30;;;;;;;28.73;27.25;;;33.30;52.70;;;;;;4879334;29;20207;-75
2023/06/24 10:29:05;;;;;;;38.85;36.78;;;33.60;53.20;;;;;;4878051;29;20669;-75
2023/06/24 10:31:39;;;;;;;29.73;28.23;;;33.80;52.20;;;;;;4875201;29;20188;-75
2023/06/24 10:34:34;;;;;;;12.02;11.38;;;34.30;51.20;;;;;;4879116;29;20220;-75
2023/06/24 10:37:07;;;;;;;19.08;18.17;;;34.30;50.00;;;;;;4878828;29;20188;-75
2023/06/24 10:39:54;;;;;;;15.57;14.75;;;33.30;51.30;;;;;;4879015;29;20944;-75
2023/06/24 10:42:29;;;;;;;24.73;23.52;;;32.60;52.50;;;;;;4875473;29;20620;-77
2023/06/24 10:45:16;;;;;;;28.92;27.25;;;32.70;51.90;;;;;;4878860;29;20311;-75
2023/06/24 10:47:44;;;;;;;25.00;23.73;;;33.00;51.50;;;;;;4878480;29;20196;-75
2023/06/24 10:50:12;;;;;;;15.32;14.52;;;33.50;50.90;;;;;;4878928;29;20199;-75
2023/06/24 10:52:57;;;;;;;12.68;11.85;;;34.10;49.70;;;;;;4875248;29;20287;-74
2023/06/24 10:55:26;;;;;;;12.77;12.07;;;33.10;49.10;;;;;;4877439;29;20216;-75
2023/06/24 10:57:52;;;;;;;14.48;13.60;;;32.70;50.60;;;;;;4877118;29;20214;-74
2023/06/24 11:00:20;;;;;;;11.93;11.00;;;33.10;50.50;;;;;;4877274;29;20768;-74
2023/06/24 11:02:45;;;;;;;14.95;14.10;;;33.00;50.10;;;;;;4874051;29;20180;-74
2023/06/24 11:05:11;;;;;;;21.60;20.50;;;32.90;50.50;;;;;;4892629;29;20219;-74
2023/06/24 11:07:38;;;;;;;13.18;12.48;;;33.30;50.90;;;;;;4876762;29;20430;-74
2023/06/24 11:10:06;;;;;;;6.90;6.47;;;34.20;48.80;;;;;;4878325;29;20207;-75
2023/06/24 11:12:34;;;;;;;8.50;7.95;;;34.30;47.60;;;;;;4874178;29;20222;-74
2023/06/24 11:15:11;;;;;;;6.25;5.88;;;34.30;47.30;;;;;;4879603;29;20228;-75
2023/06/24 11:17:38;;;;;;;12.07;11.48;;;34.30;48.00;;;;;;4898135;29;20202;-74
2023/06/24 11:20:08;;;;;;;17.58;16.63;;;33.10;49.10;;;;;;4881903;29;20219;-74
2023/06/24 11:22:35;;;;;;;14.82;13.98;;;32.80;50.40;;;;;;4875603;29;20204;-75
2023/06/24 11:25:01;;;;;;;5.07;4.88;;;33.80;49.90;;;;;;4877882;29;20208;-75
2023/06/24 11:27:28;;;;;;;5.63;5.10;;;34.60;47.20;;;;;;4876464;29;20203;-74
2023/06/24 11:30:02;;;;;;;6.22;5.90;;;35.10;47.70;;;;;;4878064;29;20279;-75
2023/06/24 11:32:38;;;;;;;41.45;39.33;;;36.10;45.60;;;;;;4875522;29;20208;-75
2023/06/24 11:35:17;;;;;;;82.53;78.47;;;36.40;45.10;;;;;;4877871;29;20299;-75
2023/06/24 11:37:45;;;;;;;6.20;5.60;;;35.40;46.00;;;;;;4877466;29;20244;-74
2023/06/24 11:40:12;;;;;;;12.88;12.07;;;33.30;48.90;;;;;;4877654;29;20216;-75
2023/06/24 11:42:44;;;;;;;44.15;42.03;;;32.00;51.70;;;;;;4874693;29;20627;-75
2023/06/24 11:45:12;;;;;;;20.92;19.75;;;31.40;52.00;;;;;;4876798;29;20316;-75
2023/06/24 11:47:39;;;;;;;15.85;14.98;;;30.90;53.40;;;;;;4877372;29;20203;-75
2023/06/24 11:50:07;;;;;;;12.70;11.95;;;30.80;54.30;;;;;;4876363;29;20196;-75
2023/06/24 11:52:35;;;;;;;17.40;16.42;;;31.10;53.80;;;;;;4875709;29;20669;-74
2023/06/24 11:55:02;;;;;;;21.92;20.80;;;31.50;51.20;;;;;;4877512;29;20220;-75
2023/06/24 11:57:48;;;;;;;21.10;19.90;;;32.70;49.70;;;;;;4877248;29;20200;-74
2023/06/24 12:00:14;;;;;;;8.65;8.23;;;34.20;48.10;;;;;;4877755;29;20585;-75
2023/06/24 12:02:40;;;;;;;3.97;3.78;;;35.40;47.70;;;;;;4877675;29;20184;-75
2023/06/24 12:05:06;;;;;;;60.95;57.95;;;36.20;45.50;;;;;;4877228;29;20597;-75
2023/06/24 12:07:32;;;;;;;82.43;78.43;;;37.00;43.60;;;;;;4877544;29;20193;-75
2023/06/24 12:09:58;;;;;;;62.55;59.38;;;37.40;43.50;;;;;;4876447;29;20254;-75
2023/06/24 12:12:23;;;;;;;44.20;42.03;;;37.50;42.20;;;;;;4875409;29;20184;-75
2023/06/24 12:14:49;;;;;;;39.40;37.53;;;37.40;41.90;;;;;;4877223;29;20739;-74
2023/06/24 12:17:15;;;;;;;79.88;76.07;;;36.30;42.60;;;;;;4877151;29;20279;-75
2023/06/24 12:19:42;;;;;;;110.22;104.82;;;34.80;44.30;;;;;;4877368;29;20216;-75
2023/06/24 12:22:08;;;;;;;77.78;74.05;;;34.40;44.50;;;;;;4870779;29;20200;-76
2023/06/24 12:24:34;;;;;;;20.63;19.55;;;34.10;45.20;;;;;;4876363;29;20581;-76
2023/06/24 12:27:00;;;;;;;7.05;6.57;;;33.70;46.40;;;;;;4875988;29;20200;-76
2023/06/24 12:29:26;;;;;;;4.00;3.70;;;33.20;46.60;;;;;;4880104;29;20193;-74
2023/06/24 12:31:51;;;;;;;5.43;5.10;;;33.20;47.70;;;;;;4881228;29;20271;-74
2023/06/24 12:34:17;;;;;;;12.45;11.80;;;34.00;46.20;;;;;;4879974;29;20216;-75
2023/06/24 12:36:43;;;;;;;63.40;60.20;;;34.90;45.40;;;;;;4876400;29;20677;-76
2023/06/24 12:39:08;;;;;;;72.70;69.07;;;35.90;43.20;;;;;;4876686;29;20200;-75
2023/06/24 12:41:34;;;;;;;60.55;57.47;;;36.70;42.10;;;;;;4870909;29;20177;-75
2023/06/24 12:44:00;;;;;;;51.40;48.92;;;36.80;41.70;;;;;;4875290;29;20676;-76
2023/06/24 12:46:26;;;;;;;47.35;45.03;;;35.80;41.30;;;;;;4877232;29;20799;-76
2023/06/24 12:48:51;;;;;;;54.28;51.65;;;36.20;41.50;;;;;;4876629;29;20192;-76
2023/06/24 12:51:17;;;;;;;32.78;31.17;;;36.00;41.40;;;;;;4872198;29;20181;-76
2023/06/24 12:53:43;;;;;;;29.92;28.40;;;36.10;41.60;;;;;;4871982;29;20192;-76
2023/06/24 12:56:08;;;;;;;31.25;29.42;;;37.10;40.80;;;;;;4876846;29;20231;-76
2023/06/24 12:58:34;;;;;;;32.92;31.27;;;36.90;40.60;;;;;;4868070;29;20204;-76
2023/06/24 13:01:00;;;;;;;25.63;24.35;;;36.00;41.30;;;;;;4875257;29;20215;-76
2023/06/24 13:03:26;;;;;;;40.20;38.15;;;36.90;40.80;;;;;;4860085;29;20200;-76
2023/06/24 13:05:51;;;;;;;32.78;31.15;;;36.00;40.60;;;;;;4878377;29;20232;-76
2023/06/24 13:08:17;;;;;;;33.58;31.88;;;35.90;41.10;;;;;;4891114;29;20206;-75
2023/06/24 13:10:43;;;;;;;20.73;19.73;;;36.60;40.10;;;;;;4881238;29;20196;-76
2023/06/24 13:13:09;;;;;;;19.80;18.75;;;37.20;40.50;;;;;;4869957;29;20211;-76
2023/06/24 13:15:35;;;;;;;21.35;20.30;;;37.70;39.00;;;;;;4877709;29;20331;-75
2023/06/24 13:18:01;;;;;;;20.23;19.23;;;38.50;38.30;;;;;;4880005;29;20203;-76
2023/06/24 13:20:27;;;;;;;21.85;20.77;;;38.00;38.30;;;;;;4879799;29;20239;-76
2023/06/24 13:22:53;;;;;;;12.35;11.65;;;37.60;38.70;;;;;;4873322;29;20193;-75
2023/06/24 13:25:18;;;;;;;9.30;8.70;;;37.90;38.30;;;;;;4880379;29;20256;-76
2023/06/24 13:27:45;;;;;;;23.08;21.95;;;38.10;38.40;;;;;;4880118;29;20207;-76
2023/06/24 13:30:11;;;;;;;26.90;25.60;;;37.70;38.50;;;;;;4879119;29;20677;-75
2023/06/24 13:32:37;;;;;;;36.20;34.35;;;36.80;39.40;;;;;;4873528;29;20211;-77
2023/06/24 13:35:04;;;;;;;37.17;35.33;;;36.60;40.10;;;;;;4880210;29;20709;-77
2023/06/24 13:37:30;;;;;;;32.05;30.42;;;36.50;39.70;;;;;;4894271;29;20213;-77
2023/06/24 13:39:55;;;;;;;24.73;23.33;;;35.80;40.50;;;;;;4881178;29;20212;-76
2023/06/24 13:42:21;;;;;;;80.72;76.85;;;35.10;41.80;;;;;;4874392;29;20192;-75
2023/06/24 13:44:47;;;;;;;139.40;132.82;;;34.30;42.80;;;;;;4864802;29;20209;-75
2023/06/24 13:47:13;;;;;;;76.07;72.40;;;33.70;44.00;;;;;;4868152;29;20202;-75
2023/06/24 13:49:38;;;;;;;63.60;60.30;;;33.40;45.10;;;;;;4880162;29;20228;-76
2023/06/24 13:52:05;;;;;;;89.32;85.07;;;34.60;43.30;;;;;;4879859;29;20228;-76
2023/06/24 13:54:32;;;;;;;50.03;47.40;;;36.00;40.70;;;;;;4879316;29;20705;-75
2023/06/24 13:56:58;;;;;;;32.28;30.65;;;36.30;40.00;;;;;;4871372;29;20663;-76
2023/06/24 13:59:24;;;;;;;25.05;23.75;;;37.10;38.70;;;;;;4879456;29;20203;-76
2023/06/24 14:01:50;;;;;;;21.35;20.27;;;37.50;38.70;;;;;;4879576;29;20607;-76
2023/06/24 14:04:15;;;;;;;11.07;10.35;;;37.90;38.70;;;;;;4878386;29;20208;-76
2023/06/24 14:06:43;;;;;;;5.50;5.10;;;38.80;38.10;;;;;;4877083;29;20212;-76
2023/06/24 14:09:09;;;;;;;7.32;6.93;;;39.30;37.40;;;;;;4893445;29;20655;-76
2023/06/24 14:11:35;;;;;;;9.65;9.05;;;39.30;37.40;;;;;;4879637;29;20259;-76
2023/06/24 14:14:00;;;;;;;9.40;9.00;;;39.60;35.60;;;;;;4878145;29;20279;-76
2023/06/24 14:16:26;;;;;;;11.88;11.25;;;39.40;35.20;;;;;;4868920;29;20271;-76
2023/06/24 14:18:52;;;;;;;9.25;8.80;;;38.40;36.60;;;;;;4875040;29;20684;-76
2023/06/24 14:21:18;;;;;;;8.85;8.35;;;37.20;37.60;;;;;;4878333;29;20228;-76
2023/06/24 14:23:44;;;;;;;33.28;31.67;;;35.60;38.70;;;;;;4879495;29;20287;-76
2023/06/24 14:26:09;;;;;;;89.97;85.68;;;34.00;40.50;;;;;;4876597;29;20212;-75
2023/06/24 14:28:35;;;;;;;9.10;8.38;;;32.60;42.80;;;;;;4873727;29;20185;-75
2023/06/24 14:31:01;;;;;;;13.90;13.20;;;31.40;44.40;;;;;;4877730;29;20196;-75
2023/06/24 14:33:27;;;;;;;23.05;21.85;;;30.70;45.40;;;;;;4878076;29;20188;-75
2023/06/24 14:35:53;;;;;;;27.60;26.10;;;30.60;46.50;;;;;;4875838;29;20224;-76
2023/06/24 14:38:19;;;;;;;27.92;26.40;;;30.20;45.90;;;;;;4878933;29;20204;-75
2023/06/24 14:40:44;;;;;;;20.95;19.95;;;30.10;45.60;;;;;;4879205;29;20696;-76
2023/06/24 14:43:10;;;;;;;26.20;24.92;;;30.40;45.90;;;;;;4877781;29;20195;-75
2023/06/24 14:45:36;;;;;;;23.27;22.13;;;30.70;46.10;;;;;;4876958;29;20208;-76
2023/06/24 14:48:02;;;;;;;26.80;25.40;;;31.20;45.40;;;;;;4878591;29;20279;-76
2023/06/24 14:50:28;;;;;;;8.93;8.43;;;32.30;43.90;;;;;;4871483;29;20207;-76
2023/06/24 14:52:54;;;;;;;5.93;5.53;;;32.80;43.60;;;;;;4898082;29;20176;-75
2023/06/24 14:55:19;;;;;;;6.30;5.70;;;32.90;43.40;;;;;;4880280;29;20204;-76
2023/06/24 14:57:45;;;;;;;5.07;4.68;;;32.30;43.50;;;;;;4878525;29;20269;-76
2023/06/24 15:00:11;;;;;;;4.38;4.05;;;32.60;43.20;;;;;;4874740;29;20224;-75
2023/06/24 15:02:37;;;;;;;5.22;4.82;;;33.40;41.70;;;;;;4874093;29;20200;-75
2023/06/24 15:05:03;;;;;;;12.80;12.18;;;33.40;41.50;;;;;;4877339;29;20225;-76
2023/06/24 15:07:29;;;;;;;30.40;28.90;;;33.70;41.60;;;;;;4877102;29;20287;-76
2023/06/24 15:09:55;;;;;;;4.80;4.50;;;33.50;41.20;;;;;;4870757;29;20208;-76
2023/06/24 15:12:20;;;;;;;5.38;5.05;;;32.60;42.60;;;;;;4878378;29;20685;-76
2023/06/24 15:14:48;;;;;;;19.33;18.05;;;32.70;43.00;;;;;;4896584;24;20265;-77
2023/06/24 15:17:14;;;;;;;39.30;37.40;;;34.00;41.50;;;;;;4889702;29;20184;-77
2023/06/24 15:19:40;;;;;;;23.60;22.50;;;35.60;40.00;;;;;;4895376;29;20755;-78
2023/06/24 15:22:05;;;;;;;41.35;39.20;;;36.50;39.00;;;;;;4897455;29;20332;-78
2023/06/24 15:24:31;;;;;;;20.45;19.45;;;37.10;37.00;;;;;;4897008;29;20230;-77
2023/06/24 15:26:58;;;;;;;33.78;32.05;;;37.10;37.40;;;;;;4898446;29;20667;-77
2023/06/24 15:29:25;;;;;;;16.00;15.25;;;36.90;37.60;;;;;;4897245;29;20198;-77
2023/06/24 15:31:53;;;;;;;16.30;15.40;;;36.90;37.40;;;;;;4897252;29;20207;-77